Time;durP1;ratioP1;P1;durP2;ratioP2;P2;SDS_P1;SDS_P2;PMS_P1;PMS_P2;Temp;Humidity;BMP_temperature;BMP_pressure;BME280_temperature;BME280_humidity;BME280_pressure;Samples;Min_cycle;Max_cycle;Signal;HPM_P1;HPM_P2
2023/11/29 00:02:12;;;;;;;8.07;5.93;;;7.60;96.70;;;;;;4913493;29;20548;-63
2023/11/29 00:04:41;;;;;;;11.32;6.32;;;7.70;96.70;;;;;;4903286;29;20493;-63
2023/11/29 00:07:09;;;;;;;9.43;6.30;;;7.60;96.70;;;;;;4922606;29;20067;-63
2023/11/29 00:09:38;;;;;;;9.38;6.15;;;7.60;96.70;;;;;;4915202;29;20049;-64
2023/11/29 00:12:06;;;;;;;8.57;6.40;;;7.60;96.70;;;;;;4917272;29;20047;-63
2023/11/29 00:14:34;;;;;;;11.48;6.70;;;7.60;96.70;;;;;;4912123;29;20095;-62
2023/11/29 00:17:04;;;;;;;10.60;6.60;;;7.60;96.70;;;;;;4910933;29;20467;-63
2023/11/29 00:19:43;;;;;;;11.65;7.25;;;7.60;96.70;;;;;;4907826;29;20048;-65
2023/11/29 00:22:11;;;;;;;12.70;7.53;;;7.50;96.70;;;;;;4902849;29;20059;-62
2023/11/29 00:24:46;;;;;;;8.02;5.25;;;7.40;96.70;;;;;;4909263;29;20549;-64
2023/11/29 00:27:14;;;;;;;7.32;4.90;;;7.30;96.70;;;;;;4908821;29;20702;-63
2023/11/29 00:29:44;;;;;;;6.40;4.65;;;7.20;96.70;;;;;;4899916;29;20043;-63
2023/11/29 00:32:12;;;;;;;6.18;4.53;;;7.10;96.70;;;;;;4909997;29;20041;-63
2023/11/29 00:34:42;;;;;;;6.65;3.90;;;7.30;96.70;;;;;;4912551;29;20044;-63
2023/11/29 00:37:10;;;;;;;5.90;3.83;;;7.20;96.70;;;;;;4910925;29;20832;-66
2023/11/29 00:39:39;;;;;;;6.47;4.03;;;7.20;96.70;;;;;;4899329;29;20127;-64
2023/11/29 00:42:09;;;;;;;9.10;4.72;;;7.20;96.70;;;;;;4915682;29;20046;-63
2023/11/29 00:44:37;;;;;;;7.38;4.63;;;7.10;96.70;;;;;;4920929;29;20047;-64
2023/11/29 00:47:05;;;;;;;7.07;4.32;;;7.10;96.70;;;;;;4894929;29;20060;-63
2023/11/29 00:49:33;;;;;;;7.28;5.05;;;7.10;96.70;;;;;;4889784;29;20048;-63
2023/11/29 00:52:03;;;;;;;6.15;3.88;;;7.10;96.70;;;;;;4907442;29;20052;-63
2023/11/29 00:54:31;;;;;;;7.53;4.25;;;7.20;96.70;;;;;;4902617;29;20080;-63
2023/11/29 00:56:58;;;;;;;6.70;3.83;;;7.10;96.70;;;;;;4913260;29;20032;-63
2023/11/29 00:59:26;;;;;;;9.43;5.07;;;7.10;96.70;;;;;;4901498;29;20075;-63
2023/11/29 01:01:55;;;;;;;6.20;4.28;;;7.10;96.70;;;;;;4912111;29;20047;-66
2023/11/29 01:04:24;;;;;;;7.65;5.00;;;7.10;96.70;;;;;;4905586;29;20048;-63
2023/11/29 01:06:53;;;;;;;8.98;5.38;;;7.00;96.70;;;;;;4886286;29;20036;-62
2023/11/29 01:09:23;;;;;;;9.30;5.57;;;7.00;96.70;;;;;;4907580;29;20059;-63
2023/11/29 01:11:51;;;;;;;9.77;5.57;;;7.00;96.70;;;;;;4928234;29;20039;-63
2023/11/29 01:14:18;;;;;;;9.68;5.25;;;7.10;96.70;;;;;;4906059;29;20075;-64
2023/11/29 01:16:46;;;;;;;11.07;6.20;;;7.00;96.70;;;;;;4903724;29;20058;-63
2023/11/29 01:19:15;;;;;;;11.25;5.97;;;6.90;96.70;;;;;;4904595;29;20094;-63
2023/11/29 01:21:43;;;;;;;7.55;4.30;;;6.80;96.70;;;;;;4900927;29;20126;-64
2023/11/29 01:24:11;;;;;;;7.05;4.30;;;6.80;96.70;;;;;;4913533;29;20067;-62
2023/11/29 01:26:41;;;;;;;7.18;4.05;;;6.70;96.70;;;;;;4906147;29;20071;-64
2023/11/29 01:29:10;;;;;;;8.77;4.32;;;6.60;96.70;;;;;;4890773;29;20072;-63
2023/11/29 01:31:38;;;;;;;5.05;3.17;;;6.60;96.70;;;;;;4916489;29;20103;-64
2023/11/29 01:34:08;;;;;;;7.05;4.10;;;6.50;96.70;;;;;;4904807;29;20078;-64
2023/11/29 01:36:41;;;;;;;6.28;3.97;;;6.50;96.70;;;;;;4912766;29;20127;-63
2023/11/29 01:39:13;;;;;;;6.53;3.70;;;6.40;96.70;;;;;;4898948;29;20044;-63
2023/11/29 01:41:43;;;;;;;4.50;3.17;;;6.40;96.70;;;;;;4921618;29;20511;-63
2023/11/29 01:44:17;;;;;;;3.65;2.80;;;6.40;96.70;;;;;;4904443;29;20071;-63
2023/11/29 01:46:47;;;;;;;4.00;3.08;;;6.40;96.70;;;;;;4903936;29;20064;-63
2023/11/29 01:49:19;;;;;;;5.78;3.08;;;6.50;96.70;;;;;;4891323;29;20057;-62
2023/11/29 01:51:47;;;;;;;6.53;3.40;;;6.50;96.70;;;;;;4920429;29;20040;-62
2023/11/29 01:54:16;;;;;;;5.00;3.47;;;6.50;96.70;;;;;;4913919;29;20535;-64
2023/11/29 01:56:45;;;;;;;6.93;3.72;;;6.40;96.70;;;;;;4908249;29;20108;-62
2023/11/29 01:59:15;;;;;;;6.38;3.30;;;6.50;96.70;;;;;;4893329;29;20044;-62
2023/11/29 02:01:43;;;;;;;4.25;3.33;;;6.50;96.70;;;;;;4903419;29;20144;-64
2023/11/29 02:04:12;;;;;;;5.00;2.80;;;6.50;96.70;;;;;;4905963;29;20056;-63
2023/11/29 02:06:41;;;;;;;5.05;2.58;;;6.60;96.70;;;;;;4913110;29;20052;-62
2023/11/29 02:09:09;;;;;;;3.67;2.70;;;6.50;96.70;;;;;;4893626;29;20490;-63
2023/11/29 02:11:39;;;;;;;3.75;2.50;;;6.50;96.70;;;;;;4916677;29;20131;-62
2023/11/29 02:14:08;;;;;;;5.07;2.78;;;6.40;96.70;;;;;;4893568;29;20498;-63
2023/11/29 02:16:36;;;;;;;4.85;2.58;;;6.30;96.70;;;;;;4889799;29;20193;-63
2023/11/29 02:19:04;;;;;;;5.07;2.45;;;6.40;96.70;;;;;;4901187;29;20047;-63
2023/11/29 02:21:34;;;;;;;4.30;2.92;;;6.30;96.70;;;;;;4886619;29;20040;-63
2023/11/29 02:24:07;;;;;;;6.38;2.80;;;6.20;96.70;;;;;;4917109;29;20849;-62
2023/11/29 02:26:36;;;;;;;4.25;2.40;;;6.30;96.70;;;;;;4908331;29;20056;-63
2023/11/29 02:29:04;;;;;;;4.07;2.55;;;6.30;96.70;;;;;;4911817;29;20055;-63
2023/11/29 02:31:32;;;;;;;4.03;2.50;;;6.20;96.70;;;;;;4907190;29;20086;-63
2023/11/29 02:34:03;;;;;;;5.05;2.40;;;6.20;96.70;;;;;;4891812;29;20080;-63
2023/11/29 02:36:31;;;;;;;2.83;2.28;;;6.20;96.70;;;;;;4912453;29;20051;-63
2023/11/29 02:38:59;;;;;;;4.95;2.55;;;6.10;96.70;;;;;;4883243;29;20048;-65
2023/11/29 02:41:27;;;;;;;4.05;2.53;;;6.10;96.70;;;;;;4912960;29;20032;-63
2023/11/29 02:43:56;;;;;;;4.78;2.70;;;6.10;96.70;;;;;;4923390;29;20060;-63
2023/11/29 02:46:24;;;;;;;4.22;2.42;;;6.00;96.70;;;;;;4904744;29;20049;-63
2023/11/29 02:48:57;;;;;;;4.80;3.00;;;6.00;96.70;;;;;;4904348;29;20055;-63
2023/11/29 02:51:27;;;;;;;4.47;2.88;;;6.00;96.70;;;;;;4895006;29;20102;-63
2023/11/29 02:53:55;;;;;;;5.45;2.65;;;6.00;96.70;;;;;;4922512;29;20453;-63
2023/11/29 02:56:24;;;;;;;4.18;2.60;;;6.00;96.70;;;;;;4913407;29;20047;-62
2023/11/29 02:58:52;;;;;;;5.55;3.13;;;6.00;96.70;;;;;;4917110;29;20123;-63
2023/11/29 03:01:21;;;;;;;4.43;2.90;;;6.00;96.70;;;;;;4902755;29;20044;-63
2023/11/29 03:03:49;;;;;;;5.20;3.08;;;5.80;96.70;;;;;;4895007;29;20067;-62
2023/11/29 03:06:17;;;;;;;5.13;2.67;;;5.70;96.70;;;;;;4913329;29;20510;-62
2023/11/29 03:08:45;;;;;;;5.53;3.08;;;5.80;96.70;;;;;;4912903;29;20772;-63
2023/11/29 03:11:13;;;;;;;5.10;3.33;;;5.90;96.70;;;;;;4916352;29;20458;-62
2023/11/29 03:13:41;;;;;;;8.27;4.22;;;5.90;96.70;;;;;;4907565;29;20130;-62
2023/11/29 03:16:09;;;;;;;8.20;4.07;;;5.90;96.70;;;;;;4902927;29;20040;-62
2023/11/29 03:18:40;;;;;;;4.40;3.28;;;5.80;96.70;;;;;;4898819;29;20452;-62
2023/11/29 03:21:08;;;;;;;5.60;3.97;;;5.70;96.70;;;;;;4912452;29;20048;-63
2023/11/29 03:23:35;;;;;;;10.27;4.85;;;5.70;96.70;;;;;;4914057;29;20381;-62
2023/11/29 03:26:04;;;;;;;9.23;4.07;;;5.80;96.70;;;;;;4918652;29;20036;-63
2023/11/29 03:28:32;;;;;;;7.68;4.35;;;5.70;96.70;;;;;;4917655;29;20052;-63
2023/11/29 03:31:00;;;;;;;5.03;3.60;;;5.70;96.70;;;;;;4921333;29;20878;-62
2023/11/29 03:33:28;;;;;;;6.40;4.05;;;5.60;96.70;;;;;;4915629;29;20039;-62
2023/11/29 03:35:58;;;;;;;5.78;3.78;;;5.60;96.70;;;;;;4896814;29;20052;-62
2023/11/29 03:38:25;;;;;;;8.55;4.15;;;5.60;96.70;;;;;;4914198;29;20127;-62
2023/11/29 03:40:54;;;;;;;4.78;3.67;;;5.50;96.70;;;;;;4904983;29;20427;-64
2023/11/29 03:43:22;;;;;;;4.45;3.63;;;5.40;96.70;;;;;;4906477;29;20040;-62
2023/11/29 03:45:51;;;;;;;4.88;3.70;;;5.50;96.70;;;;;;4918761;29;20055;-62
2023/11/29 03:48:19;;;;;;;4.47;3.72;;;5.50;96.70;;;;;;4901252;29;20123;-62
2023/11/29 03:50:47;;;;;;;4.55;3.90;;;5.50;96.70;;;;;;4911838;29;20053;-62
2023/11/29 03:53:16;;;;;;;5.38;3.35;;;5.50;96.70;;;;;;4907771;29;20492;-62
2023/11/29 03:55:51;;;;;;;5.97;3.80;;;5.60;96.70;;;;;;4885803;29;20413;-62
2023/11/29 03:58:19;;;;;;;5.85;4.45;;;5.60;96.70;;;;;;4907557;29;20537;-63
2023/11/29 04:00:47;;;;;;;5.05;4.18;;;5.50;96.70;;;;;;4918666;29;20501;-62
2023/11/29 04:03:15;;;;;;;5.85;4.07;;;5.50;96.70;;;;;;4914562;29;20049;-63
2023/11/29 04:05:44;;;;;;;6.18;3.92;;;5.40;96.70;;;;;;4917993;29;20032;-62
2023/11/29 04:08:14;;;;;;;6.05;4.53;;;5.40;96.70;;;;;;4911181;29;20040;-67
2023/11/29 04:10:43;;;;;;;5.30;3.88;;;5.50;96.70;;;;;;4913894;29;21273;-66
2023/11/29 04:13:11;;;;;;;6.05;4.15;;;5.40;96.70;;;;;;4929777;29;20050;-66
2023/11/29 04:15:40;;;;;;;5.15;4.03;;;5.30;96.70;;;;;;4891784;29;20040;-66
2023/11/29 04:18:08;;;;;;;5.78;4.32;;;5.30;96.70;;;;;;4903644;29;20091;-62
2023/11/29 04:20:36;;;;;;;7.38;4.05;;;5.20;96.70;;;;;;4885935;29;20059;-64
2023/11/29 04:23:05;;;;;;;6.63;4.25;;;5.00;96.70;;;;;;4905671;29;20131;-63
2023/11/29 04:25:32;;;;;;;7.45;4.32;;;4.90;96.70;;;;;;4896362;29;20076;-63
2023/11/29 04:28:03;;;;;;;20.45;5.60;;;4.90;96.70;;;;;;4907058;29;20049;-62
2023/11/29 04:30:31;;;;;;;18.90;5.57;;;5.00;96.70;;;;;;4908583;29;20047;-63
2023/11/29 04:33:00;;;;;;;9.82;5.57;;;4.90;96.70;;;;;;4890290;29;20140;-65
2023/11/29 04:35:29;;;;;;;5.32;4.32;;;5.00;96.70;;;;;;4904481;29;20045;-66
2023/11/29 04:37:57;;;;;;;6.57;4.35;;;5.00;96.70;;;;;;4897865;29;20059;-66
2023/11/29 04:40:25;;;;;;;6.30;4.93;;;5.00;96.70;;;;;;4895229;29;20399;-66
2023/11/29 04:42:53;;;;;;;7.32;4.43;;;5.10;96.70;;;;;;4891639;29;20056;-66
2023/11/29 04:45:22;;;;;;;8.20;5.10;;;5.00;96.70;;;;;;4921720;29;20523;-66
2023/11/29 04:47:50;;;;;;;5.90;5.10;;;5.00;96.70;;;;;;4912695;29;20056;-66
2023/11/29 04:50:18;;;;;;;6.65;5.10;;;4.90;96.70;;;;;;4914085;29;20737;-65
2023/11/29 04:52:49;;;;;;;6.03;4.95;;;4.90;96.70;;;;;;4912519;29;20131;-66
2023/11/29 04:55:17;;;;;;;6.63;5.32;;;4.90;96.70;;;;;;4913278;29;20127;-66
2023/11/29 04:57:45;;;;;;;7.07;5.40;;;4.90;96.70;;;;;;4907570;29;20060;-66
2023/11/29 05:00:15;;;;;;;7.70;5.82;;;5.00;96.70;;;;;;4911652;29;20048;-66
2023/11/29 05:02:44;;;;;;;5.75;4.95;;;5.00;96.70;;;;;;4906025;29;20527;-66
2023/11/29 05:05:20;;;;;;;6.00;5.38;;;4.90;96.70;;;;;;4911145;29;20063;-65
2023/11/29 05:07:48;;;;;;;5.72;4.88;;;4.90;96.70;;;;;;4904293;29;20048;-66
2023/11/29 05:10:17;;;;;;;7.03;5.07;;;5.00;96.70;;;;;;4916808;29;20067;-66
2023/11/29 05:12:46;;;;;;;5.13;4.15;;;5.00;96.70;;;;;;4919587;29;20055;-66
2023/11/29 05:15:14;;;;;;;5.78;4.53;;;5.00;96.70;;;;;;4896917;29;20063;-65
2023/11/29 05:17:53;;;;;;;6.93;4.65;;;4.90;96.70;;;;;;4905939;29;20544;-66
2023/11/29 05:20:21;;;;;;;6.57;4.78;;;4.90;96.70;;;;;;4898493;29;20044;-66
2023/11/29 05:22:49;;;;;;;6.75;4.88;;;4.90;96.70;;;;;;4900750;29;20108;-66
2023/11/29 05:25:19;;;;;;;8.63;5.95;;;5.00;96.70;;;;;;4896140;29;20493;-65
2023/11/29 05:27:47;;;;;;;6.70;5.65;;;5.10;96.70;;;;;;4899294;29;20475;-66
2023/11/29 05:30:15;;;;;;;6.18;5.05;;;5.10;96.70;;;;;;4894139;29;20051;-66
2023/11/29 05:32:44;;;;;;;7.03;5.25;;;5.10;96.70;;;;;;4909891;29;20519;-66
2023/11/29 05:35:13;;;;;;;6.32;4.95;;;5.00;96.70;;;;;;4919310;29;20130;-66
2023/11/29 05:37:42;;;;;;;6.38;4.43;;;5.00;96.70;;;;;;4914963;29;20047;-65
2023/11/29 05:40:12;;;;;;;6.47;4.65;;;5.00;96.70;;;;;;4916666;29;20056;-66
2023/11/29 05:42:42;;;;;;;6.50;4.30;;;5.10;96.70;;;;;;4922139;29;20060;-66
2023/11/29 05:45:10;;;;;;;5.95;4.28;;;5.20;96.70;;;;;;4924372;29;20043;-65
2023/11/29 05:47:38;;;;;;;5.70;4.25;;;5.10;96.70;;;;;;4906675;29;20397;-66
2023/11/29 05:50:07;;;;;;;7.35;4.78;;;5.00;96.70;;;;;;4897490;29;20051;-66
2023/11/29 05:52:37;;;;;;;5.85;4.50;;;4.90;96.70;;;;;;4900734;29;20531;-69
2023/11/29 05:55:29;;;;;;;5.07;4.22;;;4.90;96.70;;;;;;4910818;29;20107;-66
2023/11/29 05:58:00;;;;;;;5.68;4.28;;;5.00;96.70;;;;;;4897447;29;20405;-66
2023/11/29 06:00:29;;;;;;;4.75;3.80;;;5.00;96.70;;;;;;4907281;29;20037;-65
2023/11/29 06:02:59;;;;;;;6.05;4.13;;;5.00;96.70;;;;;;4917150;29;20041;-62
2023/11/29 06:05:29;;;;;;;6.28;4.55;;;4.90;96.70;;;;;;4905272;29;20039;-61
2023/11/29 06:08:01;;;;;;;7.47;4.68;;;5.00;96.70;;;;;;4905481;29;20067;-63
2023/11/29 06:10:29;;;;;;;10.05;4.63;;;5.20;96.70;;;;;;4912409;29;20404;-63
2023/11/29 06:12:57;;;;;;;6.60;4.45;;;5.30;96.70;;;;;;4899266;29;20127;-63
2023/11/29 06:15:25;;;;;;;7.90;4.32;;;5.30;96.70;;;;;;4906273;29;20067;-62
2023/11/29 06:17:54;;;;;;;7.50;4.07;;;5.30;96.70;;;;;;4909572;29;20056;-62
2023/11/29 06:20:23;;;;;;;6.90;3.80;;;5.40;96.70;;;;;;4906777;29;20056;-62
2023/11/29 06:22:51;;;;;;;8.30;3.70;;;5.40;96.70;;;;;;4908754;29;20084;-61
2023/11/29 06:25:20;;;;;;;11.45;4.57;;;5.40;96.70;;;;;;4903294;29;20036;-62
2023/11/29 06:27:48;;;;;;;9.40;5.00;;;5.40;96.70;;;;;;4913693;29;20055;-63
2023/11/29 06:30:17;;;;;;;14.77;4.85;;;5.50;96.70;;;;;;4907185;29;20577;-65
2023/11/29 06:32:47;;;;;;;18.23;5.50;;;5.60;96.70;;;;;;4913516;29;20047;-66
2023/11/29 06:35:18;;;;;;;15.27;5.07;;;5.50;96.70;;;;;;4912584;29;20067;-66
2023/11/29 06:37:47;;;;;;;8.80;4.65;;;5.50;96.70;;;;;;4900888;29;20539;-65
2023/11/29 06:40:28;;;;;;;12.38;4.90;;;5.50;96.70;;;;;;4897813;29;20052;-67
2023/11/29 06:42:56;;;;;;;10.13;5.43;;;5.40;96.70;;;;;;4903802;29;20044;-67
2023/11/29 06:45:25;;;;;;;9.07;4.38;;;5.40;96.70;;;;;;4906589;29;20051;-67
2023/11/29 06:48:00;;;;;;;8.02;4.90;;;5.40;96.70;;;;;;4899733;29;20061;-69
2023/11/29 06:50:33;;;;;;;10.43;3.90;;;5.40;96.70;;;;;;4905618;29;20040;-67
2023/11/29 06:53:03;;;;;;;8.57;5.00;;;5.30;96.70;;;;;;4906477;29;20056;-68
2023/11/29 06:55:34;;;;;;;9.30;4.80;;;5.40;96.70;;;;;;4918059;29;20457;-68
2023/11/29 06:58:02;;;;;;;12.75;5.25;;;5.50;96.70;;;;;;4910962;29;20497;-67
2023/11/29 07:01:07;;;;;;;11.60;4.72;;;5.50;96.70;;;;;;4897552;29;20052;-70
2023/11/29 07:03:35;;;;;;;28.65;5.38;;;5.50;96.70;;;;;;4908415;29;20052;-66
2023/11/29 07:06:05;;;;;;;21.67;5.80;;;5.50;96.70;;;;;;4915541;29;20040;-65
2023/11/29 07:08:34;;;;;;;13.50;4.75;;;5.50;96.70;;;;;;4914647;29;20517;-65
2023/11/29 07:11:04;;;;;;;9.35;5.18;;;5.60;96.70;;;;;;4912373;29;20411;-66
2023/11/29 07:13:35;;;;;;;21.40;5.55;;;5.60;96.70;;;;;;4918098;29;20123;-64
2023/11/29 07:16:17;;;;;;;23.65;5.13;;;5.60;96.70;;;;;;4930991;29;20065;-70
2023/11/29 07:19:35;;;;;;;18.98;5.15;;;5.60;96.70;;;;;;4904249;29;20045;-71
2023/11/29 07:22:05;;;;;;;18.67;6.13;;;5.60;96.70;;;;;;4905575;29;20052;-70
2023/11/29 07:24:33;;;;;;;22.13;6.70;;;5.70;96.70;;;;;;4919668;29;20931;-69
2023/11/29 07:27:02;;;;;;;14.45;6.15;;;5.70;96.70;;;;;;4914731;29;20063;-69
2023/11/29 07:29:30;;;;;;;12.10;6.53;;;5.70;96.70;;;;;;4901963;29;20060;-68
2023/11/29 07:32:01;;;;;;;9.82;6.00;;;5.70;96.70;;;;;;4901991;29;20060;-69
2023/11/29 07:34:30;;;;;;;16.92;6.78;;;5.80;96.70;;;;;;4902869;29;20112;-68
2023/11/29 07:36:58;;;;;;;12.40;5.65;;;5.80;96.70;;;;;;4912854;29;20496;-69
2023/11/29 07:39:28;;;;;;;11.98;5.88;;;5.80;96.70;;;;;;4917734;29;20044;-69
2023/11/29 07:41:56;;;;;;;8.82;5.15;;;5.80;96.70;;;;;;4905332;29;20044;-68
2023/11/29 07:44:29;;;;;;;7.03;5.00;;;6.00;96.70;;;;;;4914310;29;20689;-69
2023/11/29 07:46:57;;;;;;;9.70;5.15;;;6.10;96.70;;;;;;4897957;29;20056;-69
2023/11/29 07:49:25;;;;;;;12.80;5.32;;;6.00;96.70;;;;;;4906378;29;20052;-65
2023/11/29 07:51:54;;;;;;;16.58;5.97;;;6.10;96.70;;;;;;4921472;29;20075;-65
2023/11/29 07:54:22;;;;;;;15.35;5.95;;;6.20;96.70;;;;;;4928372;29;20111;-65
2023/11/29 07:56:49;;;;;;;12.95;5.90;;;6.30;96.70;;;;;;4912711;29;20059;-65
2023/11/29 07:59:17;;;;;;;12.05;5.72;;;6.20;96.70;;;;;;4912884;29;20076;-65
2023/11/29 08:01:47;;;;;;;12.40;6.00;;;6.20;96.70;;;;;;4929362;29;20055;-65
2023/11/29 08:04:15;;;;;;;36.45;8.70;;;6.20;96.70;;;;;;4929685;29;20126;-65
2023/11/29 08:06:43;;;;;;;11.57;5.63;;;6.30;96.70;;;;;;4929540;29;20050;-65
2023/11/29 08:09:12;;;;;;;11.57;5.95;;;6.30;96.70;;;;;;4900947;29;20420;-65
2023/11/29 08:11:40;;;;;;;12.75;6.40;;;6.40;96.70;;;;;;4901162;29;20040;-66
2023/11/29 08:14:08;;;;;;;11.35;5.45;;;6.50;96.70;;;;;;4910577;29;20044;-65
2023/11/29 08:16:36;;;;;;;17.20;6.22;;;6.60;96.70;;;;;;4894229;29;20532;-65
2023/11/29 08:19:06;;;;;;;8.73;5.68;;;6.50;96.70;;;;;;4896831;29;20045;-63
2023/11/29 08:21:34;;;;;;;8.23;5.20;;;6.50;96.70;;;;;;4920046;29;20056;-64
2023/11/29 08:24:03;;;;;;;8.20;5.47;;;6.60;96.70;;;;;;4920101;29;20649;-66
2023/11/29 08:26:31;;;;;;;10.50;6.65;;;6.60;96.70;;;;;;4914874;29;20592;-65
2023/11/29 08:28:59;;;;;;;12.52;7.53;;;6.70;96.70;;;;;;4927383;29;20098;-65
2023/11/29 08:31:27;;;;;;;12.57;7.82;;;6.70;96.70;;;;;;4908200;29;20130;-65
2023/11/29 08:33:55;;;;;;;9.18;6.78;;;6.80;96.70;;;;;;4923597;29;20051;-65
2023/11/29 08:36:24;;;;;;;12.27;7.10;;;6.70;96.70;;;;;;4900525;29;20124;-65
2023/11/29 08:38:52;;;;;;;9.23;6.20;;;6.80;96.70;;;;;;4916231;29;20071;-66
2023/11/29 08:41:21;;;;;;;9.00;6.10;;;6.90;96.70;;;;;;4911426;29;20667;-66
2023/11/29 08:43:49;;;;;;;7.18;5.65;;;6.90;96.70;;;;;;4911080;29;20046;-65
2023/11/29 08:46:17;;;;;;;7.55;5.80;;;7.00;96.70;;;;;;4916117;29;20388;-66
2023/11/29 08:48:45;;;;;;;8.30;5.60;;;7.10;96.70;;;;;;4916508;29;20616;-66
2023/11/29 08:51:16;;;;;;;8.18;5.82;;;7.20;96.70;;;;;;4929953;29;20040;-66
2023/11/29 08:53:46;;;;;;;8.50;6.75;;;7.30;96.70;;;;;;4911862;29;20563;-66
2023/11/29 08:56:16;;;;;;;9.60;6.38;;;7.30;96.70;;;;;;4906852;29;20076;-66
2023/11/29 08:58:45;;;;;;;9.93;6.20;;;7.50;96.70;;;;;;4912826;29;20048;-65
2023/11/29 09:01:16;;;;;;;9.15;7.03;;;7.50;96.70;;;;;;4928949;29;20547;-65
2023/11/29 09:03:44;;;;;;;7.72;6.22;;;7.50;96.70;;;;;;4914451;29;20074;-65
2023/11/29 09:06:13;;;;;;;7.40;5.93;;;7.50;96.70;;;;;;4929188;29;20051;-66
2023/11/29 09:08:43;;;;;;;8.60;6.15;;;7.40;96.70;;;;;;4932000;29;20052;-66
2023/11/29 09:11:13;;;;;;;8.75;6.43;;;7.50;96.70;;;;;;4910868;29;20444;-66
2023/11/29 09:13:43;;;;;;;8.45;6.55;;;7.70;96.70;;;;;;4907258;29;20119;-65
2023/11/29 09:16:12;;;;;;;7.80;5.78;;;7.70;96.70;;;;;;4924445;29;20132;-66
2023/11/29 09:18:39;;;;;;;10.50;6.40;;;7.80;96.70;;;;;;4926211;29;20059;-66
2023/11/29 09:21:10;;;;;;;9.00;6.28;;;7.80;96.70;;;;;;4898231;29;20127;-66
2023/11/29 09:23:38;;;;;;;8.75;6.00;;;7.90;96.70;;;;;;4920053;29;20039;-66
2023/11/29 09:26:06;;;;;;;9.60;7.03;;;7.90;96.70;;;;;;4920025;29;20063;-66
2023/11/29 09:28:36;;;;;;;8.93;6.60;;;7.90;96.70;;;;;;4914852;29;20127;-63
2023/11/29 09:31:05;;;;;;;18.05;6.88;;;7.90;96.70;;;;;;4931689;29;20131;-66
2023/11/29 09:33:33;;;;;;;15.85;9.05;;;8.10;96.70;;;;;;4920376;29;20036;-65
2023/11/29 09:36:01;;;;;;;13.90;9.02;;;8.20;96.70;;;;;;4903237;29;20120;-66
2023/11/29 09:38:29;;;;;;;21.80;6.93;;;8.20;96.70;;;;;;4932718;29;20050;-67
2023/11/29 09:40:58;;;;;;;10.35;6.10;;;8.30;96.70;;;;;;4919151;29;20136;-66
2023/11/29 09:43:26;;;;;;;10.50;5.50;;;8.40;96.70;;;;;;4929732;29;20067;-66
2023/11/29 09:45:56;;;;;;;10.40;5.63;;;8.50;96.70;;;;;;4932029;29;20388;-66
2023/11/29 09:48:24;;;;;;;7.07;4.88;;;8.70;96.70;;;;;;4858286;29;20163;-66
2023/11/29 09:50:52;;;;;;;11.05;6.65;;;8.80;96.70;;;;;;4909599;29;20052;-66
2023/11/29 09:53:23;;;;;;;10.38;7.85;;;8.80;96.70;;;;;;4912126;29;20047;-66
2023/11/29 09:55:52;;;;;;;11.98;8.77;;;8.90;96.70;;;;;;4915119;29;20035;-66
2023/11/29 09:58:20;;;;;;;10.88;8.05;;;8.80;96.70;;;;;;4915154;29;20043;-67
2023/11/29 10:00:49;;;;;;;12.80;8.05;;;8.90;96.70;;;;;;4906193;29;20052;-65
2023/11/29 10:03:21;;;;;;;10.20;7.97;;;9.00;96.70;;;;;;4927910;29;20136;-69
2023/11/29 10:05:50;;;;;;;13.82;9.45;;;9.10;96.70;;;;;;4917456;29;20605;-69
2023/11/29 10:08:22;;;;;;;12.85;8.60;;;9.20;96.70;;;;;;4900983;29;20064;-69
2023/11/29 10:10:50;;;;;;;14.93;9.23;;;9.20;96.70;;;;;;4930212;29;20154;-69
2023/11/29 10:13:18;;;;;;;12.45;8.73;;;9.30;96.70;;;;;;4914576;29;20665;-66
2023/11/29 10:15:47;;;;;;;11.57;8.27;;;9.40;96.70;;;;;;4910562;29;20060;-66
2023/11/29 10:18:17;;;;;;;9.48;8.05;;;9.30;96.70;;;;;;4918373;29;20046;-66
2023/11/29 10:20:48;;;;;;;13.07;8.85;;;9.30;96.70;;;;;;4927710;29;20052;-65
2023/11/29 10:23:33;;;;;;;12.57;7.82;;;9.50;96.70;;;;;;4899241;29;20036;-66
2023/11/29 10:26:02;;;;;;;12.65;8.48;;;9.50;96.70;;;;;;4905826;29;20063;-66
2023/11/29 10:28:32;;;;;;;11.75;9.00;;;9.60;96.70;;;;;;4930182;29;20139;-66
2023/11/29 10:31:03;;;;;;;11.55;8.02;;;9.70;96.70;;;;;;4919968;29;20048;-65
2023/11/29 10:33:32;;;;;;;10.35;7.43;;;9.70;96.70;;;;;;4908000;29;20099;-66
2023/11/29 10:36:03;;;;;;;9.43;6.97;;;9.80;96.70;;;;;;4904447;29;20040;-65
2023/11/29 10:38:39;;;;;;;10.48;6.78;;;9.90;96.70;;;;;;4900481;29;20514;-65
2023/11/29 10:41:09;;;;;;;11.05;7.55;;;10.10;96.70;;;;;;4921616;29;20047;-66
2023/11/29 10:43:42;;;;;;;9.23;7.25;;;10.20;96.70;;;;;;4918448;29;20040;-66
2023/11/29 10:46:18;;;;;;;8.60;6.75;;;10.30;96.70;;;;;;4912231;29;20057;-67
2023/11/29 10:48:51;;;;;;;10.68;7.00;;;10.40;96.70;;;;;;4904689;29;20124;-69
2023/11/29 10:51:21;;;;;;;9.30;6.70;;;10.50;96.70;;;;;;4926931;29;20119;-69
2023/11/29 10:54:16;;;;;;;6.88;5.53;;;10.60;96.70;;;;;;4921515;29;20061;-69
2023/11/29 10:57:12;;;;;;;9.23;5.70;;;10.60;96.70;;;;;;4923587;29;20062;-69
2023/11/29 10:59:46;;;;;;;7.00;5.22;;;10.60;96.70;;;;;;4923912;29;20050;-71
2023/11/29 11:02:15;;;;;;;5.65;4.85;;;10.70;96.70;;;;;;4897298;29;20044;-69
2023/11/29 11:04:47;;;;;;;9.60;6.05;;;10.90;96.70;;;;;;4920833;29;20110;-69
2023/11/29 11:07:39;;;;;;;7.05;5.05;;;10.90;96.70;;;;;;4921186;29;20052;-69
2023/11/29 11:10:11;;;;;;;9.13;5.30;;;11.10;96.70;;;;;;4909356;29;20090;-69
2023/11/29 11:12:40;;;;;;;7.05;5.15;;;11.20;96.70;;;;;;4917990;29;20052;-69
2023/11/29 11:15:16;;;;;;;7.40;5.05;;;11.20;96.70;;;;;;4915169;29;20038;-69
2023/11/29 11:17:45;;;;;;;8.18;5.07;;;11.30;96.70;;;;;;4914527;29;20124;-69
2023/11/29 11:20:18;;;;;;;7.63;5.53;;;11.40;96.70;;;;;;4922452;29;20419;-69
2023/11/29 11:22:49;;;;;;;9.65;5.43;;;11.50;96.70;;;;;;4925696;29;20056;-70
2023/11/29 11:25:18;;;;;;;7.82;5.75;;;11.60;96.70;;;;;;4910233;29;20413;-69
2023/11/29 11:27:47;;;;;;;7.05;5.03;;;11.60;96.70;;;;;;4910618;29;20056;-69
2023/11/29 11:30:25;;;;;;;9.05;5.60;;;11.50;96.70;;;;;;4922089;29;20611;-69
2023/11/29 11:32:57;;;;;;;6.00;4.95;;;11.30;96.70;;;;;;4907606;29;20116;-68
2023/11/29 11:35:35;;;;;;;6.75;5.30;;;11.40;96.70;;;;;;4905282;29;20555;-68
2023/11/29 11:38:09;;;;;;;6.90;5.35;;;11.70;96.70;;;;;;4906669;29;20045;-68
2023/11/29 11:40:41;;;;;;;9.18;5.65;;;11.80;96.70;;;;;;4929719;29;20075;-68
2023/11/29 11:43:34;;;;;;;8.90;5.15;;;12.00;96.70;;;;;;4920327;29;20044;-68
2023/11/29 11:46:05;;;;;;;5.97;4.45;;;12.10;96.70;;;;;;4925754;29;20078;-69
2023/11/29 11:49:00;;;;;;;8.40;5.05;;;12.20;96.70;;;;;;4907469;29;20060;-69
2023/11/29 11:51:28;;;;;;;6.20;4.50;;;12.40;96.70;;;;;;4895513;29;20047;-67
2023/11/29 11:53:59;;;;;;;9.38;3.83;;;12.70;96.70;;;;;;4916319;29;20060;-68
2023/11/29 11:56:28;;;;;;;6.70;3.00;;;12.90;96.70;;;;;;4926995;29;20412;-67
2023/11/29 11:58:57;;;;;;;6.72;4.10;;;13.00;96.70;;;;;;4885720;29;20420;-67
2023/11/29 12:01:26;;;;;;;9.68;5.47;;;13.10;96.70;;;;;;4900987;29;20781;-67
2023/11/29 12:03:54;;;;;;;6.68;4.60;;;13.10;96.70;;;;;;4925130;29;20039;-67
2023/11/29 12:06:22;;;;;;;9.85;4.22;;;12.90;96.70;;;;;;4916152;29;20102;-67
2023/11/29 12:08:50;;;;;;;7.32;4.18;;;12.80;96.70;;;;;;4907430;29;20108;-67
2023/11/29 12:11:27;;;;;;;8.52;3.95;;;12.80;96.70;;;;;;4912745;29;20040;-67
2023/11/29 12:13:58;;;;;;;7.60;3.80;;;13.00;96.70;;;;;;4924712;29;20156;-67
2023/11/29 12:16:26;;;;;;;6.00;3.67;;;13.20;96.70;;;;;;4915695;29;20047;-68
2023/11/29 12:18:55;;;;;;;12.05;4.50;;;13.40;96.70;;;;;;4913882;29;20037;-67
2023/11/29 12:21:28;;;;;;;6.68;3.72;;;13.50;96.70;;;;;;4911558;29;20041;-67
2023/11/29 12:24:03;;;;;;;6.90;4.88;;;13.60;96.70;;;;;;4896586;29;20052;-67
2023/11/29 12:26:34;;;;;;;8.68;3.80;;;13.80;96.70;;;;;;4923564;29;20076;-67
2023/11/29 12:29:04;;;;;;;4.95;3.03;;;13.90;96.70;;;;;;4923699;29;20087;-68
2023/11/29 12:31:36;;;;;;;4.40;3.35;;;14.00;96.70;;;;;;4913332;29;20251;-68
2023/11/29 12:34:04;;;;;;;10.10;3.72;;;14.10;96.70;;;;;;4899168;29;20049;-68
2023/11/29 12:36:32;;;;;;;7.35;3.50;;;14.20;96.70;;;;;;4909334;29;20236;-68
2023/11/29 12:39:01;;;;;;;7.85;3.80;;;14.20;96.70;;;;;;4902300;29;20044;-68
2023/11/29 12:41:29;;;;;;;7.88;4.45;;;14.20;96.70;;;;;;4916950;29;20047;-67
2023/11/29 12:44:01;;;;;;;7.30;3.88;;;14.20;96.70;;;;;;4907325;29;20048;-68
2023/11/29 12:46:29;;;;;;;5.95;3.50;;;14.30;96.70;;;;;;4919145;29;20047;-68
2023/11/29 12:48:57;;;;;;;6.60;3.67;;;14.40;96.70;;;;;;4910512;29;20555;-67
2023/11/29 12:51:25;;;;;;;7.13;4.53;;;14.40;96.70;;;;;;4925380;29;20067;-68
2023/11/29 12:53:53;;;;;;;6.32;3.97;;;14.50;96.70;;;;;;4911307;29;20063;-67
2023/11/29 12:56:21;;;;;;;8.65;4.95;;;14.50;96.70;;;;;;4916574;29;20052;-66
2023/11/29 12:58:50;;;;;;;5.03;3.45;;;14.50;96.70;;;;;;4916459;29;20594;-67
2023/11/29 13:01:20;;;;;;;7.40;4.18;;;14.50;96.70;;;;;;4916556;29;20052;-67
2023/11/29 13:03:48;;;;;;;6.53;4.22;;;14.60;96.70;;;;;;4919634;29;20126;-67
2023/11/29 13:06:18;;;;;;;6.93;3.60;;;14.70;96.70;;;;;;4920761;29;20452;-68
2023/11/29 13:08:47;;;;;;;5.57;3.85;;;14.70;96.70;;;;;;4906240;29;20508;-67